Time,TemperatureF,DewpointF,PressureIn,WindDirection,WindDirectionDegrees,WindSpeedMPH,WindSpeedGustMPH,Humidity,HourlyPrecipIn,Conditions,Clouds,dailyrainin,SolarRadiationWatts/m^2,SoftwareType,DateUTC
2013-12-01 00:04:00,27.4,20.2,30.16,NNE,14,1.2,1.2,74,0.00,CLR,OVC,0.00,0.0,WeatherDisplay:10.37,2013-12-01 06:04:00,
2013-12-01 00:09:00,27.2,20.3,30.16,NNE,14,0.0,0.0,75,0.00,CLR,OVC,0.00,0.0,WeatherDisplay:10.37,2013-12-01 06:09:00,
2013-12-01 00:14:00,27.1,20.2,30.16,NNE,14,0.0,0.0,75,0.00,CLR,OVC,0.00,0.0,WeatherDisplay:10.37,2013-12-01 06:14:00,
2013-12-01 00:19:00,27.0,20.1,30.16,North,355,0.0,0.0,75,0.00,CLR,OVC,0.00,0.0,WeatherDisplay:10.37,2013-12-01 06:19:00,
2013-12-01 00:24:00,26.9,20.0,30.16,North,355,0.0,0.0,75,0.00,CLR,OVC,0.00,0.0,WeatherDisplay:10.37,2013-12-01 06:24:00,
2013-12-01 00:25:00,27.0,20.1,30.16,North,355,0.0,0.0,75,0.00,CLR,OVC,0.00,0.0,WeatherDisplay:10.37,2013-12-01 06:25:00,
2013-12-01 00:30:00,26.8,19.9,30.16,North,355,0.0,0.0,75,0.00,CLR,OVC,0.00,0.0,WeatherDisplay:10.37,2013-12-01 06:30:00,
2013-12-01 00:35:00,26.6,19.7,30.16,North,355,0.0,0.0,75,0.00,CLR,OVC,0.00,0.0,WeatherDisplay:10.37,2013-12-01 06:35:00,
2013-12-01 00:40:00,26.6,19.7,30.16,North,355,0.0,0.0,75,0.00,CLR,OVC,0.00,0.0,WeatherDisplay:10.37,2013-12-01 06:40:00,
2013-12-01 00:45:00,26.5,20.0,30.16,North,355,0.0,0.0,76,0.00,CLR,OVC,0.00,0.0,WeatherDisplay:10.37,2013-12-01 06:45:00,
2013-12-01 00:50:00,26.5,20.0,30.16,North,355,0.0,0.0,76,0.00,CLR,OVC,0.00,0.0,WeatherDisplay:10.37,2013-12-01 06:50:00,
2013-12-01 00:55:00,26.4,19.9,30.16,North,355,0.0,0.0,76,0.00,CLR,OVC,0.00,0.0,WeatherDisplay:10.37,2013-12-01 06:55:00,
2013-12-01 01:00:00,26.3,19.8,30.16,North,355,1.0,1.0,76,0.00,CLR,OVC,0.00,0.0,WeatherDisplay:10.37,2013-12-01 07:00:00,
2013-12-01 01:05:00,26.2,19.7,30.16,North,355,0.0,0.0,76,0.00,CLR,OVC,0.00,0.0,WeatherDisplay:10.37,2013-12-01 07:05:00,
2013-12-01 01:10:00,26.1,19.6,30.16,North,355,0.0,0.0,76,0.00,CLR,OVC,0.00,0.0,WeatherDisplay:10.37,2013-12-01 07:10:00,
2013-12-01 01:15:00,25.9,19.4,30.16,North,355,0.0,0.0,76,0.00,CLR,OVC,0.00,0.0,WeatherDisplay:10.37,2013-12-01 07:15:00,
2013-12-01 01:20:00,25.7,19.2,30.16,North,355,0.0,0.0,76,0.00,CLR,OVC,0.00,0.0,WeatherDisplay:10.37,2013-12-01 07:20:00,
2013-12-01 01:25:00,25.4,19.2,30.16,North,355,0.0,0.0,77,0.00,CLR,OVC,0.00,0.0,WeatherDisplay:10.37,2013-12-01 07:25:00,
2013-12-01 01:30:00,25.2,19.0,30.16,North,355,0.0,0.0,77,0.00,CLR,OVC,0.00,0.0,WeatherDisplay:10.37,2013-12-01 07:30:00,
2013-12-01 01:35:00,25.0,18.8,30.16,North,355,0.0,0.0,77,0.00,CLR,OVC,0.00,0.0,WeatherDisplay:10.37,2013-12-01 07:35:00,
2013-12-01 01:40:00,24.7,18.5,30.16,North,355,0.0,0.0,77,0.00,CLR,OVC,0.00,0.0,WeatherDisplay:10.37,2013-12-01 07:40:00,
2013-12-01 01:45:00,24.4,18.2,30.16,North,355,0.0,0.0,77,0.00,CLR,OVC,0.00,0.0,WeatherDisplay:10.37,2013-12-01 07:45:00,
2013-12-01 01:50:00,24.1,17.9,30.16,North,355,0.0,0.0,77,0.00,CLR,OVC,0.00,0.0,WeatherDisplay:10.37,2013-12-01 07:50:00,
2013-12-01 01:55:00,23.8,17.6,30.16,North,355,0.0,0.0,77,0.00,CLR,OVC,0.00,0.0,WeatherDisplay:10.37,2013-12-01 07:55:00,
2013-12-01 02:00:00,23.5,17.6,30.16,North,355,0.0,0.0,78,0.00,CLR,OVC,0.00,0.0,WeatherDisplay:10.37,2013-12-01 08:00:00,
2013-12-01 02:05:00,23.3,17.5,30.16,North,355,0.0,0.0,78,0.00,CLR,OVC,0.00,0.0,WeatherDisplay:10.37,2013-12-01 08:05:00,
2013-12-01 02:10:00,23.0,17.2,30.16,North,355,0.0,0.0,78,0.00,CLR,OVC,0.00,0.0,WeatherDisplay:10.37,2013-12-01 08:10:00,
2013-12-01 02:15:00,22.7,16.9,30.16,North,355,0.0,0.0,78,0.00,CLR,OVC,0.00,0.0,WeatherDisplay:10.37,2013-12-01 08:15:00,
2013-12-01 02:20:00,22.5,17.0,30.16,North,355,0.0,0.0,79,0.00,CLR,OVC,0.00,0.0,WeatherDisplay:10.37,2013-12-01 08:20:00,
2013-12-01 02:25:00,22.3,16.8,30.16,North,355,0.0,0.0,79,0.00,CLR,OVC,0.00,0.0,WeatherDisplay:10.37,2013-12-01 08:25:00,
2013-12-01 02:30:00,22.1,16.6,30.16,North,355,1.2,0.0,79,0.00,CLR,OVC,0.00,0.0,WeatherDisplay:10.37,2013-12-01 08:30:00,
2013-12-01 02:35:00,22.0,16.8,30.16,North,355,1.2,0.0,80,0.00,CLR,OVC,0.00,0.0,WeatherDisplay:10.37,2013-12-01 08:35:00,
2013-12-01 02:40:00,21.9,16.7,30.17,North,355,0.0,0.0,80,0.00,CLR,OVC,0.00,0.0,WeatherDisplay:10.37,2013-12-01 08:40:00,
2013-12-01 02:45:00,21.9,16.7,30.16,North,355,0.0,0.0,80,0.00,CLR,OVC,0.00,0.0,WeatherDisplay:10.37,2013-12-01 08:45:00,
2013-12-01 02:50:00,21.8,16.6,30.16,North,355,0.0,0.0,80,0.00,CLR,OVC,0.00,0.0,WeatherDisplay:10.37,2013-12-01 08:50:00,
2013-12-01 02:55:00,21.6,16.4,30.16,North,355,0.0,0.0,80,0.00,CLR,OVC,0.00,0.0,WeatherDisplay:10.37,2013-12-01 08:55:00,
2013-12-01 03:00:00,21.3,16.4,30.16,North,355,0.0,0.0,81,0.00,CLR,OVC,0.00,0.0,WeatherDisplay:10.37,2013-12-01 09:00:00,
2013-12-01 03:01:00,21.3,16.4,30.16,North,355,0.0,0.0,81,0.00,CLR,OVC,0.00,0.0,WeatherDisplay:10.37,2013-12-01 09:01:00,
2013-12-01 03:06:00,21.1,16.2,30.16,North,355,0.0,0.0,81,0.00,CLR,OVC,0.00,0.0,WeatherDisplay:10.37,2013-12-01 09:06:00,
2013-12-01 03:11:00,20.9,16.0,30.16,North,355,0.0,0.0,81,0.00,CLR,OVC,0.00,0.0,WeatherDisplay:10.37,2013-12-01 09:11:00,
2013-12-01 03:16:00,21.0,16.1,30.16,North,355,0.0,0.0,81,0.00,CLR,OVC,0.00,0.0,WeatherDisplay:10.37,2013-12-01 09:16:00,
2013-12-01 03:21:00,20.8,15.9,30.16,North,355,0.0,0.0,81,0.00,CLR,OVC,0.00,0.0,WeatherDisplay:10.37,2013-12-01 09:21:00,
2013-12-01 03:26:00,20.6,16.0,30.16,North,355,0.0,0.0,82,0.00,CLR,OVC,0.00,0.0,WeatherDisplay:10.37,2013-12-01 09:26:00,
2013-12-01 03:31:00,20.4,15.5,30.16,North,355,0.0,0.0,81,0.00,CLR,OVC,0.00,0.0,WeatherDisplay:10.37,2013-12-01 09:31:00,
2013-12-01 03:36:00,20.4,15.8,30.16,North,355,0.0,0.0,82,0.00,CLR,OVC,0.00,0.0,WeatherDisplay:10.37,2013-12-01 09:36:00,
2013-12-01 03:41:00,20.3,15.7,30.16,North,355,0.0,0.0,82,0.00,CLR,OVC,0.00,0.0,WeatherDisplay:10.37,2013-12-01 09:41:00,
2013-12-01 03:46:00,20.0,15.4,30.16,North,355,0.0,0.0,82,0.00,CLR,OVC,0.00,0.0,WeatherDisplay:10.37,2013-12-01 09:46:00,
2013-12-01 03:51:00,19.7,15.1,30.16,North,355,0.0,0.0,82,0.00,CLR,OVC,0.00,0.0,WeatherDisplay:10.37,2013-12-01 09:51:00,
2013-12-01 03:56:00,19.5,14.9,30.16,North,355,0.0,0.0,82,0.00,CLR,OVC,0.00,0.0,WeatherDisplay:10.37,2013-12-01 09:56:00,
2013-12-01 04:01:00,19.3,14.7,30.16,North,355,0.0,0.0,82,0.00,CLR,OVC,0.00,0.0,WeatherDisplay:10.37,2013-12-01 10:01:00,
2013-12-01 04:06:00,19.1,14.5,30.15,North,355,0.0,0.0,82,0.00,CLR,OVC,0.00,0.0,WeatherDisplay:10.37,2013-12-01 10:06:00,
2013-12-01 04:11:00,18.8,14.2,30.16,North,355,0.0,0.0,82,0.00,CLR,OVC,0.00,0.0,WeatherDisplay:10.37,2013-12-01 10:11:00,
2013-12-01 04:16:00,18.8,14.2,30.16,North,355,0.0,0.0,82,0.00,CLR,OVC,0.00,0.0,WeatherDisplay:10.37,2013-12-01 10:16:00,
2013-12-01 04:21:00,18.8,14.2,30.16,North,355,0.0,0.0,82,0.00,CLR,OVC,0.00,0.0,WeatherDisplay:10.37,2013-12-01 10:21:00,
2013-12-01 04:26:00,18.8,14.2,30.17,North,355,0.0,0.0,82,0.00,CLR,OVC,0.00,0.0,WeatherDisplay:10.37,2013-12-01 10:26:00,
2013-12-01 04:31:00,18.7,14.4,30.17,North,355,0.0,0.0,83,0.00,CLR,OVC,0.00,0.0,WeatherDisplay:10.37,2013-12-01 10:31:00,
2013-12-01 04:36:00,18.6,14.3,30.17,North,355,0.0,0.0,83,0.00,CLR,OVC,0.00,0.0,WeatherDisplay:10.37,2013-12-01 10:36:00,
2013-12-01 04:41:00,18.6,14.3,30.18,North,355,0.0,0.0,83,0.00,CLR,OVC,0.00,0.0,WeatherDisplay:10.37,2013-12-01 10:41:00,
2013-12-01 04:46:00,18.5,14.2,30.18,North,355,0.0,0.0,83,0.00,CLR,OVC,0.00,0.0,WeatherDisplay:10.37,2013-12-01 10:46:00,
2013-12-01 04:51:00,18.5,14.2,30.17,North,355,0.0,0.0,83,0.00,CLR,OVC,0.00,0.0,WeatherDisplay:10.37,2013-12-01 10:51:00,
2013-12-01 04:56:00,18.4,14.1,30.17,North,355,0.0,0.0,83,0.00,CLR,OVC,0.00,0.0,WeatherDisplay:10.37,2013-12-01 10:56:00,
2013-12-01 05:01:00,18.4,14.1,30.17,North,355,0.0,0.0,83,0.00,CLR,OVC,0.00,0.0,WeatherDisplay:10.37,2013-12-01 11:01:00,
2013-12-01 05:06:00,18.3,14.0,30.17,North,355,1.2,0.0,83,0.00,CLR,OVC,0.00,0.0,WeatherDisplay:10.37,2013-12-01 11:06:00,
2013-12-01 05:11:00,18.4,14.1,30.17,North,355,0.0,0.0,83,0.00,CLR,OVC,0.00,0.0,WeatherDisplay:10.37,2013-12-01 11:11:00,
2013-12-01 05:16:00,18.5,14.2,30.17,North,355,0.0,0.0,83,0.00,CLR,OVC,0.00,0.0,WeatherDisplay:10.37,2013-12-01 11:16:00,
2013-12-01 05:21:00,18.5,14.2,30.18,North,355,0.0,0.0,83,0.00,CLR,OVC,0.00,0.0,WeatherDisplay:10.37,2013-12-01 11:21:00,
2013-12-01 05:26:00,18.3,14.3,30.18,North,355,0.0,0.0,84,0.00,CLR,OVC,0.00,0.0,WeatherDisplay:10.37,2013-12-01 11:26:00,
2013-12-01 05:31:00,18.1,14.1,30.17,North,355,0.0,0.0,84,0.00,CLR,OVC,0.00,0.0,WeatherDisplay:10.37,2013-12-01 11:31:00,
2013-12-01 05:36:00,17.9,13.9,30.17,North,355,0.0,0.0,84,0.00,CLR,OVC,0.00,0.0,WeatherDisplay:10.37,2013-12-01 11:36:00,
2013-12-01 05:41:00,17.7,13.7,30.17,North,355,0.0,0.0,84,0.00,CLR,OVC,0.00,0.0,WeatherDisplay:10.37,2013-12-01 11:41:00,
2013-12-01 05:46:00,17.5,13.5,30.17,North,355,0.0,0.0,84,0.00,CLR,OVC,0.00,0.0,WeatherDisplay:10.37,2013-12-01 11:46:00,
2013-12-01 05:51:00,17.3,13.3,30.17,North,355,0.0,0.0,84,0.00,CLR,OVC,0.00,0.0,WeatherDisplay:10.37,2013-12-01 11:51:00,
2013-12-01 05:56:00,17.1,13.1,30.17,North,355,0.0,0.0,84,0.00,CLR,OVC,0.00,0.0,WeatherDisplay:10.37,2013-12-01 11:56:00,
2013-12-01 06:01:00,17.1,13.1,30.17,North,355,0.0,0.0,84,0.00,CLR,OVC,0.00,0.0,WeatherDisplay:10.37,2013-12-01 12:01:00,
2013-12-01 06:06:00,17.1,13.1,30.17,North,355,0.0,0.0,84,0.00,CLR,OVC,0.00,0.0,WeatherDisplay:10.37,2013-12-01 12:06:00,
2013-12-01 06:11:00,17.0,13.0,30.17,North,355,0.0,0.0,84,0.00,CLR,OVC,0.00,0.0,WeatherDisplay:10.37,2013-12-01 12:11:00,
2013-12-01 06:16:00,16.9,12.9,30.17,North,355,0.0,0.0,84,0.00,CLR,OVC,0.00,0.0,WeatherDisplay:10.37,2013-12-01 12:16:00,
2013-12-01 06:21:00,16.7,12.7,30.17,North,355,0.0,0.0,84,0.00,CLR,OVC,0.00,0.0,WeatherDisplay:10.37,2013-12-01 12:21:00,
2013-12-01 06:26:00,16.4,12.4,30.17,North,355,0.0,0.0,84,0.00,CLR,OVC,0.00,0.0,WeatherDisplay:10.37,2013-12-01 12:26:00,
2013-12-01 06:31:00,16.3,12.3,30.17,North,355,0.0,0.0,84,0.00,CLR,OVC,0.00,0.0,WeatherDisplay:10.37,2013-12-01 12:31:00,
2013-12-01 06:36:00,16.2,12.2,30.17,North,355,0.0,0.0,84,0.00,CLR,OVC,0.00,0.0,WeatherDisplay:10.37,2013-12-01 12:36:00,
2013-12-01 06:41:00,16.2,12.2,30.17,North,355,0.0,0.0,84,0.00,CLR,OVC,0.00,0.0,WeatherDisplay:10.37,2013-12-01 12:41:00,
2013-12-01 06:46:00,16.1,12.1,30.17,North,355,0.0,0.0,84,0.00,CLR,OVC,0.00,0.0,WeatherDisplay:10.37,2013-12-01 12:46:00,
2013-12-01 06:51:00,16.0,12.0,30.17,North,355,0.0,0.0,84,0.00,CLR,OVC,0.00,0.0,WeatherDisplay:10.37,2013-12-01 12:51:00,
2013-12-01 06:56:00,16.0,12.0,30.17,North,355,0.0,0.0,84,0.00,CLR,OVC,0.00,0.0,WeatherDisplay:10.37,2013-12-01 12:56:00,
2013-12-01 07:01:00,15.9,11.9,30.17,North,355,0.0,0.0,84,0.00,CLR,OVC,0.00,0.0,WeatherDisplay:10.37,2013-12-01 13:01:00,
2013-12-01 07:06:00,15.8,11.8,30.17,North,355,0.0,0.0,84,0.00,CLR,OVC,0.00,0.0,WeatherDisplay:10.37,2013-12-01 13:06:00,
2013-12-01 07:11:00,15.7,11.7,30.17,North,355,0.0,0.0,84,0.00,CLR,OVC,0.00,0.0,WeatherDisplay:10.37,2013-12-01 13:11:00,
2013-12-01 07:16:00,15.7,11.7,30.17,North,355,0.0,0.0,84,0.00,CLR,OVC,0.00,0.0,WeatherDisplay:10.37,2013-12-01 13:16:00,
2013-12-01 07:21:00,15.5,11.5,30.17,North,355,0.0,0.0,84,0.00,CLR,OVC,0.00,0.0,WeatherDisplay:10.37,2013-12-01 13:21:00,
2013-12-01 07:26:00,15.4,11.4,30.17,North,355,0.0,0.0,84,0.00,CLR,OVC,0.00,0.0,WeatherDisplay:10.37,2013-12-01 13:26:00,
2013-12-01 07:31:00,15.3,11.3,30.17,North,355,0.0,0.0,84,0.00,CLR,OVC,0.00,0.0,WeatherDisplay:10.37,2013-12-01 13:31:00,
2013-12-01 07:36:00,15.3,11.3,30.17,North,355,0.0,0.0,84,0.00,CLR,OVC,0.00,0.0,WeatherDisplay:10.37,2013-12-01 13:36:00,
2013-12-01 07:41:00,15.3,11.3,30.17,North,355,0.0,0.0,84,0.00,CLR,OVC,0.00,0.0,WeatherDisplay:10.37,2013-12-01 13:41:00,
2013-12-01 07:46:00,15.3,11.3,30.18,North,355,0.0,0.0,84,0.00,CLR,OVC,0.00,0.0,WeatherDisplay:10.37,2013-12-01 13:46:00,
2013-12-01 07:51:00,15.3,11.3,30.18,North,355,0.0,0.0,84,0.00,CLR,OVC,0.00,0.0,WeatherDisplay:10.37,2013-12-01 13:51:00,
2013-12-01 07:56:00,15.3,11.3,30.18,North,355,0.0,0.0,84,0.00,CLR,OVC,0.00,0.0,WeatherDisplay:10.37,2013-12-01 13:56:00,
2013-12-01 08:01:00,15.3,11.3,30.18,North,355,0.0,0.0,84,0.00,CLR,OVC,0.00,0.0,WeatherDisplay:10.37,2013-12-01 14:01:00,
2013-12-01 08:06:00,15.5,11.5,30.17,North,355,0.0,0.0,84,0.00,CLR,OVC,0.00,0.0,WeatherDisplay:10.37,2013-12-01 14:06:00,
2013-12-01 08:11:00,15.8,11.8,30.17,North,355,0.0,0.0,84,0.00,CLR,OVC,0.00,0.0,WeatherDisplay:10.37,2013-12-01 14:11:00,
2013-12-01 08:16:00,16.0,12.0,30.18,North,355,0.0,0.0,84,0.00,CLR,OVC,0.00,0.0,WeatherDisplay:10.37,2013-12-01 14:16:00,
2013-12-01 08:21:00,16.4,12.4,30.18,North,355,0.0,0.0,84,0.00,CLR,OVC,0.00,0.0,WeatherDisplay:10.37,2013-12-01 14:21:00,
2013-12-01 08:26:00,16.8,13.1,30.18,North,355,0.0,0.0,85,0.00,CLR,OVC,0.00,0.0,WeatherDisplay:10.37,2013-12-01 14:26:00,
2013-12-01 08:31:00,17.2,13.5,30.18,North,355,0.0,0.0,85,0.00,CLR,OVC,0.00,0.0,WeatherDisplay:10.37,2013-12-01 14:31:00,
2013-12-01 08:36:00,17.7,14.0,30.18,North,355,0.0,0.0,85,0.00,CLR,OVC,0.00,0.0,WeatherDisplay:10.37,2013-12-01 14:36:00,
2013-12-01 08:41:00,18.2,14.4,30.18,North,355,0.0,0.0,85,0.00,CLR,OVC,0.00,0.0,WeatherDisplay:10.37,2013-12-01 14:41:00,
2013-12-01 08:46:00,18.8,15.0,30.18,North,355,0.0,0.0,85,0.00,CLR,OVC,0.00,0.0,WeatherDisplay:10.37,2013-12-01 14:46:00,
2013-12-01 08:51:00,19.4,15.6,30.17,North,355,0.0,0.0,85,0.00,CLR,OVC,0.00,0.0,WeatherDisplay:10.37,2013-12-01 14:51:00,
2013-12-01 08:56:00,19.8,16.0,30.17,North,355,0.0,0.0,85,0.00,CLR,OVC,0.00,0.0,WeatherDisplay:10.37,2013-12-01 14:56:00,
2013-12-01 09:01:00,20.4,16.6,30.18,North,355,0.0,0.0,85,0.00,OVC,,0.00,0.0,WeatherDisplay:10.37,2013-12-01 15:01:00,
2013-12-01 09:06:00,21.0,17.5,30.18,North,355,0.0,0.0,86,0.00,OVC,,0.00,0.0,WeatherDisplay:10.37,2013-12-01 15:06:00,
2013-12-01 09:11:00,21.5,18.0,30.18,North,355,0.0,0.0,86,0.00,OVC,,0.00,0.0,WeatherDisplay:10.37,2013-12-01 15:11:00,
2013-12-01 09:16:00,21.9,18.4,30.18,North,355,0.0,0.0,86,0.00,OVC,,0.00,0.0,WeatherDisplay:10.37,2013-12-01 15:16:00,
2013-12-01 09:21:00,22.2,18.7,30.18,North,355,0.0,0.0,86,0.00,OVC,,0.00,0.0,WeatherDisplay:10.37,2013-12-01 15:21:00,
2013-12-01 09:26:00,22.4,18.8,30.17,North,355,0.0,0.0,86,0.00,OVC,,0.00,0.0,WeatherDisplay:10.37,2013-12-01 15:26:00,
2013-12-01 09:31:00,22.4,18.8,30.18,North,355,0.0,0.0,86,0.00,OVC,,0.00,0.0,WeatherDisplay:10.37,2013-12-01 15:31:00,
2013-12-01 09:36:00,22.5,18.7,30.17,North,355,0.0,0.0,85,0.00,OVC,,0.00,0.0,WeatherDisplay:10.37,2013-12-01 15:36:00,
2013-12-01 09:41:00,22.7,19.1,30.17,North,355,0.0,0.0,86,0.00,OVC,,0.00,0.0,WeatherDisplay:10.37,2013-12-01 15:41:00,
2013-12-01 09:46:00,23.0,19.4,30.17,North,355,0.0,0.0,86,0.00,OVC,,0.00,0.0,WeatherDisplay:10.37,2013-12-01 15:46:00,
2013-12-01 09:51:00,23.1,19.5,30.18,North,355,0.0,0.0,86,0.00,OVC,,0.00,0.0,WeatherDisplay:10.37,2013-12-01 15:51:00,
2013-12-01 09:56:00,23.3,19.7,30.17,North,355,0.0,0.0,86,0.00,OVC,,0.00,0.0,WeatherDisplay:10.37,2013-12-01 15:56:00,
2013-12-01 10:01:00,23.6,19.8,30.17,North,355,0.0,0.0,85,0.00,OVC,,0.00,0.0,WeatherDisplay:10.37,2013-12-01 16:01:00,
2013-12-01 10:06:00,24.3,20.4,30.17,North,355,0.0,0.0,85,0.00,OVC,,0.00,0.0,WeatherDisplay:10.37,2013-12-01 16:06:00,
2013-12-01 10:11:00,25.0,21.4,30.17,North,355,0.0,0.0,86,0.00,OVC,,0.00,0.0,WeatherDisplay:10.37,2013-12-01 16:11:00,
2013-12-01 10:16:00,25.4,21.5,30.17,North,355,0.0,0.0,85,0.00,OVC,,0.00,0.0,WeatherDisplay:10.37,2013-12-01 16:16:00,
2013-12-01 10:21:00,25.8,21.9,30.17,North,355,0.0,0.0,85,0.00,OVC,,0.00,0.0,WeatherDisplay:10.37,2013-12-01 16:21:00,
2013-12-01 10:26:00,26.2,22.3,30.17,North,355,0.0,0.0,85,0.00,OVC,,0.00,0.0,WeatherDisplay:10.37,2013-12-01 16:26:00,
2013-12-01 10:31:00,26.5,22.3,30.17,North,355,0.0,0.0,84,0.00,OVC,,0.00,0.0,WeatherDisplay:10.37,2013-12-01 16:31:00,
2013-12-01 10:36:00,26.9,22.7,30.17,North,360,0.0,0.0,84,0.00,OVC,,0.00,0.0,WeatherDisplay:10.37,2013-12-01 16:36:00,
2013-12-01 10:41:00,27.2,22.7,30.17,North,360,0.0,0.0,83,0.00,OVC,,0.00,0.0,WeatherDisplay:10.37,2013-12-01 16:41:00,
2013-12-01 10:46:00,27.6,23.1,30.16,North,360,0.0,0.0,83,0.00,OVC,,0.00,0.0,WeatherDisplay:10.37,2013-12-01 16:46:00,
2013-12-01 10:51:00,27.9,23.1,30.16,North,360,0.0,0.0,82,0.00,OVC,,0.00,0.0,WeatherDisplay:10.37,2013-12-01 16:51:00,
2013-12-01 10:56:00,28.5,23.7,30.16,North,360,0.0,0.0,82,0.00,OVC,,0.00,0.0,WeatherDisplay:10.37,2013-12-01 16:56:00,
2013-12-01 11:01:00,29.0,23.9,30.16,North,360,0.0,0.0,81,0.00,OVC,,0.00,0.0,WeatherDisplay:10.37,2013-12-01 17:01:00,
2013-12-01 11:06:00,29.6,24.5,30.16,North,360,0.0,0.0,81,0.00,OVC,,0.00,0.0,WeatherDisplay:10.37,2013-12-01 17:06:00,
2013-12-01 11:11:00,30.2,24.8,30.15,North,360,1.2,0.0,80,0.00,OVC,,0.00,0.0,WeatherDisplay:10.37,2013-12-01 17:11:00,
2013-12-01 11:16:00,30.7,24.7,30.15,North,360,0.0,0.0,78,0.00,OVC,,0.00,0.0,WeatherDisplay:10.37,2013-12-01 17:16:00,
2013-12-01 11:21:00,31.3,24.9,30.15,North,360,0.0,0.0,77,0.00,OVC,,0.00,0.0,WeatherDisplay:10.37,2013-12-01 17:21:00,
2013-12-01 11:26:00,31.6,24.6,30.14,NNE,17,0.0,0.0,75,0.00,OVC,,0.00,0.0,WeatherDisplay:10.37,2013-12-01 17:26:00,
2013-12-01 11:31:00,31.8,24.8,30.14,NNE,17,0.0,0.0,75,0.00,OVC,,0.00,0.0,WeatherDisplay:10.37,2013-12-01 17:31:00,
2013-12-01 11:36:00,32.0,24.6,30.14,NNE,17,2.3,2.3,74,0.00,OVC,,0.00,0.0,WeatherDisplay:10.37,2013-12-01 17:36:00,
2013-12-01 11:41:00,32.4,24.7,30.13,NNE,25,2.3,2.3,73,0.00,OVC,,0.00,0.0,WeatherDisplay:10.37,2013-12-01 17:41:00,
2013-12-01 11:46:00,32.5,24.5,30.13,NNE,24,0.0,0.0,72,0.00,OVC,,0.00,0.0,WeatherDisplay:10.37,2013-12-01 17:46:00,
2013-12-01 11:51:00,32.9,24.9,30.13,NNE,28,2.3,2.3,72,0.00,OVC,,0.00,0.0,WeatherDisplay:10.37,2013-12-01 17:51:00,
2013-12-01 11:56:00,33.1,24.7,30.12,East,96,2.3,2.3,71,0.00,OVC,,0.00,0.0,WeatherDisplay:10.37,2013-12-01 17:56:00,
2013-12-01 12:01:00,33.0,24.3,30.12,ESE,115,2.3,2.3,70,0.00,OVC,,0.00,0.0,WeatherDisplay:10.37,2013-12-01 18:01:00,
2013-12-01 12:06:00,33.2,24.5,30.12,ESE,115,0.0,0.0,70,0.00,OVC,,0.00,0.0,WeatherDisplay:10.37,2013-12-01 18:06:00,
2013-12-01 12:11:00,33.5,24.4,30.12,SSW,200,0.0,0.0,69,0.00,OVC,,0.00,0.0,WeatherDisplay:10.37,2013-12-01 18:11:00,
2013-12-01 12:16:00,33.6,24.5,30.12,SSW,199,1.2,1.2,69,0.00,OVC,,0.00,0.0,WeatherDisplay:10.37,2013-12-01 18:16:00,
2013-12-01 12:21:00,33.4,24.0,30.12,SSW,199,0.0,0.0,68,0.00,OVC,,0.00,0.0,WeatherDisplay:10.37,2013-12-01 18:21:00,
2013-12-01 12:26:00,33.4,24.0,30.11,SW,230,3.5,3.5,68,0.00,OVC,,0.00,0.0,WeatherDisplay:10.37,2013-12-01 18:26:00,
2013-12-01 12:31:00,33.4,24.0,30.11,SSW,192,4.6,4.6,68,0.00,OVC,,0.00,0.0,WeatherDisplay:10.37,2013-12-01 18:31:00,
2013-12-01 12:36:00,33.6,24.2,30.11,SW,225,3.5,3.5,68,0.00,OVC,,0.00,0.0,WeatherDisplay:10.37,2013-12-01 18:36:00,
2013-12-01 12:41:00,33.6,24.2,30.11,WSW,241,0.0,0.0,68,0.00,OVC,,0.00,0.0,WeatherDisplay:10.37,2013-12-01 18:41:00,
2013-12-01 12:46:00,33.9,24.4,30.11,WSW,241,3.5,3.5,68,0.00,OVC,,0.00,0.0,WeatherDisplay:10.37,2013-12-01 18:46:00,
2013-12-01 12:51:00,34.3,24.5,30.10,WSW,242,1.2,1.2,67,0.00,OVC,,0.00,0.0,WeatherDisplay:10.37,2013-12-01 18:51:00,
2013-12-01 12:56:00,34.6,24.8,30.10,SW,236,1.2,1.2,67,0.00,OVC,,0.00,0.0,WeatherDisplay:10.37,2013-12-01 18:56:00,
2013-12-01 13:01:00,35.1,24.5,30.09,SW,217,3.5,3.5,65,0.00,OVC,,0.00,0.0,WeatherDisplay:10.37,2013-12-01 19:01:00,
2013-12-01 13:06:00,34.9,23.9,30.09,SW,218,3.5,3.5,64,0.00,OVC,,0.00,0.0,WeatherDisplay:10.37,2013-12-01 19:06:00,
2013-12-01 13:11:00,34.8,24.2,30.09,SW,217,3.5,3.5,65,0.00,OVC,,0.00,0.0,WeatherDisplay:10.37,2013-12-01 19:11:00,
2013-12-01 13:16:00,34.5,23.9,30.09,WSW,250,3.5,3.5,65,0.00,OVC,,0.00,0.0,WeatherDisplay:10.37,2013-12-01 19:16:00,
2013-12-01 13:21:00,34.4,23.8,30.09,South,188,3.5,3.5,65,0.00,OVC,,0.00,0.0,WeatherDisplay:10.37,2013-12-01 19:21:00,
2013-12-01 13:26:00,34.4,23.8,30.08,SW,229,2.3,2.3,65,0.00,OVC,,0.00,0.0,WeatherDisplay:10.37,2013-12-01 19:26:00,
2013-12-01 13:31:00,34.3,23.7,30.08,WSW,256,1.2,1.2,65,0.00,OVC,,0.00,0.0,WeatherDisplay:10.37,2013-12-01 19:31:00,
2013-12-01 13:36:00,34.2,23.7,30.08,SW,229,3.5,3.5,65,0.00,OVC,,0.00,0.0,WeatherDisplay:10.37,2013-12-01 19:36:00,
2013-12-01 13:38:00,34.2,23.7,30.08,SW,230,2.3,2.3,65,0.00,OVC,,0.00,0.0,WeatherDisplay:10.37,2013-12-01 19:38:00,
2013-12-01 13:43:00,34.0,23.5,30.08,South,177,2.3,2.3,65,0.00,OVC,,0.00,0.0,WeatherDisplay:10.37,2013-12-01 19:43:00,
2013-12-01 13:48:00,34.0,23.5,30.07,WSW,258,3.5,3.5,65,0.00,OVC,,0.00,0.0,WeatherDisplay:10.37,2013-12-01 19:48:00,
2013-12-01 13:53:00,33.9,23.4,30.07,WSW,258,1.2,1.2,65,0.00,OVC,,0.00,0.0,WeatherDisplay:10.37,2013-12-01 19:53:00,
2013-12-01 13:58:00,34.0,23.8,30.07,WSW,258,0.0,0.0,66,0.00,OVC,,0.00,0.0,WeatherDisplay:10.37,2013-12-01 19:58:00,
2013-12-01 14:03:00,34.2,23.7,30.07,WSW,257,0.0,0.0,65,0.00,OVC,,0.00,0.0,WeatherDisplay:10.37,2013-12-01 20:03:00,
2013-12-01 14:08:00,34.4,23.8,30.06,WSW,257,0.0,0.0,65,0.00,OVC,,0.00,0.0,WeatherDisplay:10.37,2013-12-01 20:08:00,
2013-12-01 14:13:00,34.4,23.8,30.06,SSW,203,1.2,0.0,65,0.00,OVC,,0.00,0.0,WeatherDisplay:10.37,2013-12-01 20:13:00,
2013-12-01 14:18:00,34.4,23.8,30.06,SSW,203,0.0,0.0,65,0.00,OVC,,0.00,0.0,WeatherDisplay:10.37,2013-12-01 20:18:00,
2013-12-01 14:23:00,34.8,24.2,30.06,SSW,203,0.0,0.0,65,0.00,OVC,,0.00,0.0,WeatherDisplay:10.37,2013-12-01 20:23:00,
2013-12-01 14:28:00,35.2,24.2,30.05,SSW,204,0.0,0.0,64,0.00,OVC,,0.00,0.0,WeatherDisplay:10.37,2013-12-01 20:28:00,
2013-12-01 14:33:00,35.3,24.0,30.05,SSW,203,0.0,0.0,63,0.00,OVC,,0.00,0.0,WeatherDisplay:10.37,2013-12-01 20:33:00,
2013-12-01 14:38:00,35.2,23.9,30.05,SSW,204,1.2,0.0,63,0.00,OVC,,0.00,0.0,WeatherDisplay:10.37,2013-12-01 20:38:00,
2013-12-01 14:43:00,35.1,24.1,30.05,SSW,203,2.3,2.3,64,0.00,OVC,,0.00,0.0,WeatherDisplay:10.37,2013-12-01 20:43:00,
2013-12-01 14:48:00,34.9,23.9,30.05,SSW,203,2.3,2.3,64,0.00,OVC,,0.00,0.0,WeatherDisplay:10.37,2013-12-01 20:48:00,
2013-12-01 14:53:00,34.8,23.9,30.05,SSW,203,0.0,0.0,64,0.00,OVC,,0.00,0.0,WeatherDisplay:10.37,2013-12-01 20:53:00,
2013-12-01 14:58:00,34.5,23.6,30.05,SSW,203,0.0,0.2,64,0.00,OVC,,0.00,0.0,WeatherDisplay:10.37,2013-12-01 20:58:00,
2013-12-01 15:03:00,34.4,23.5,30.05,SSW,203,0.0,0.0,64,0.00,CLR,OVC,0.00,0.0,WeatherDisplay:10.37,2013-12-01 21:03:00,
2013-12-01 15:08:00,34.4,23.5,30.05,SSW,203,0.0,0.0,64,0.00,CLR,OVC,0.00,0.0,WeatherDisplay:10.37,2013-12-01 21:08:00,
2013-12-01 15:13:00,34.3,23.4,30.05,SSW,203,0.0,0.0,64,0.00,CLR,OVC,0.00,0.0,WeatherDisplay:10.37,2013-12-01 21:13:00,
2013-12-01 15:18:00,34.1,23.6,30.04,SSW,204,0.0,0.0,65,0.00,CLR,OVC,0.00,0.0,WeatherDisplay:10.37,2013-12-01 21:18:00,
2013-12-01 15:23:00,33.9,23.4,30.04,SSW,203,0.0,0.0,65,0.00,CLR,OVC,0.00,0.0,WeatherDisplay:10.37,2013-12-01 21:23:00,
2013-12-01 15:28:00,33.7,23.2,30.04,SSW,203,0.0,0.0,65,0.00,CLR,OVC,0.00,0.0,WeatherDisplay:10.37,2013-12-01 21:28:00,
2013-12-01 15:33:00,33.5,23.4,30.04,SSW,204,0.0,0.0,66,0.00,CLR,OVC,0.00,0.0,WeatherDisplay:10.37,2013-12-01 21:33:00,
2013-12-01 15:38:00,33.4,23.3,30.04,SSW,203,0.0,0.0,66,0.00,CLR,OVC,0.00,0.0,WeatherDisplay:10.37,2013-12-01 21:38:00,
2013-12-01 15:43:00,33.2,23.1,30.04,SSW,203,2.3,2.3,66,0.00,CLR,OVC,0.00,0.0,WeatherDisplay:10.37,2013-12-01 21:43:00,
2013-12-01 15:48:00,33.1,23.0,30.04,SSW,203,0.0,0.0,66,0.00,CLR,OVC,0.00,0.0,WeatherDisplay:10.37,2013-12-01 21:48:00,
2013-12-01 15:53:00,33.2,23.1,30.04,SSW,204,2.3,0.0,66,0.00,CLR,OVC,0.00,0.0,WeatherDisplay:10.37,2013-12-01 21:53:00,
2013-12-01 15:58:00,33.2,23.4,30.04,SSW,204,1.2,0.0,67,0.00,CLR,OVC,0.00,0.0,WeatherDisplay:10.37,2013-12-01 21:58:00,
2013-12-01 16:03:00,33.2,23.4,30.03,SSW,204,0.0,0.0,67,0.00,CLR,OVC,0.00,0.0,WeatherDisplay:10.37,2013-12-01 22:03:00,
2013-12-01 16:08:00,33.2,23.4,30.03,SSW,203,0.0,0.0,67,0.00,CLR,OVC,0.00,0.0,WeatherDisplay:10.37,2013-12-01 22:08:00,
2013-12-01 16:13:00,33.1,23.3,30.03,SSW,203,0.0,0.1,67,0.00,CLR,OVC,0.00,0.0,WeatherDisplay:10.37,2013-12-01 22:13:00,
2013-12-01 16:18:00,33.0,23.2,30.03,SSW,204,0.0,0.0,67,0.00,CLR,OVC,0.00,0.0,WeatherDisplay:10.37,2013-12-01 22:18:00,
2013-12-01 16:23:00,32.8,23.0,30.03,SSW,203,0.0,0.0,67,0.00,CLR,OVC,0.00,0.0,WeatherDisplay:10.37,2013-12-01 22:23:00,
2013-12-01 16:28:00,32.6,22.8,30.03,SSW,203,0.0,0.0,67,0.00,CLR,OVC,0.00,0.0,WeatherDisplay:10.37,2013-12-01 22:28:00,
2013-12-01 16:33:00,32.3,22.6,30.03,SSW,203,0.0,0.0,67,0.00,CLR,OVC,0.00,0.0,WeatherDisplay:10.37,2013-12-01 22:33:00,
2013-12-01 16:38:00,32.1,22.4,30.03,SSW,203,0.0,0.0,67,0.00,CLR,OVC,0.00,0.0,WeatherDisplay:10.37,2013-12-01 22:38:00,
2013-12-01 16:43:00,31.7,22.3,30.03,SSW,203,0.0,0.0,68,0.00,CLR,OVC,0.00,0.0,WeatherDisplay:10.37,2013-12-01 22:43:00,
2013-12-01 16:48:00,31.4,22.1,30.02,SSW,203,0.0,0.0,68,0.00,CLR,OVC,0.00,0.0,WeatherDisplay:10.37,2013-12-01 22:48:00,
2013-12-01 16:53:00,31.1,22.1,30.02,SSW,203,0.0,0.0,69,0.00,CLR,OVC,0.00,0.0,WeatherDisplay:10.37,2013-12-01 22:53:00,
2013-12-01 16:58:00,30.8,21.8,30.02,SSW,204,0.0,0.0,69,0.00,CLR,OVC,0.00,0.0,WeatherDisplay:10.37,2013-12-01 22:58:00,
2013-12-01 17:03:00,30.5,21.5,30.02,SSW,203,0.0,0.0,69,0.00,CLR,OVC,0.00,0.0,WeatherDisplay:10.37,2013-12-01 23:03:00,
2013-12-01 17:08:00,30.2,21.6,30.02,SSW,203,0.0,0.0,70,0.00,CLR,OVC,0.00,0.0,WeatherDisplay:10.37,2013-12-01 23:08:00,
2013-12-01 17:13:00,29.9,21.3,30.02,SSW,203,0.0,0.0,70,0.00,CLR,OVC,0.00,0.0,WeatherDisplay:10.37,2013-12-01 23:13:00,
2013-12-01 17:18:00,29.7,21.4,30.02,SSW,204,0.0,0.0,71,0.00,CLR,OVC,0.00,0.0,WeatherDisplay:10.37,2013-12-01 23:18:00,
2013-12-01 17:23:00,29.4,21.2,30.02,SSW,204,0.0,0.0,71,0.00,CLR,OVC,0.00,0.0,WeatherDisplay:10.37,2013-12-01 23:23:00,
2013-12-01 17:28:00,29.1,21.2,30.02,SSW,204,0.0,0.0,72,0.00,CLR,OVC,0.00,0.0,WeatherDisplay:10.37,2013-12-01 23:28:00,
2013-12-01 17:33:00,28.9,21.0,30.02,SSW,203,0.0,0.0,72,0.00,CLR,OVC,0.00,0.0,WeatherDisplay:10.37,2013-12-01 23:33:00,
2013-12-01 17:38:00,28.7,20.8,30.02,SSW,203,0.0,0.0,72,0.00,CLR,OVC,0.00,0.0,WeatherDisplay:10.37,2013-12-01 23:38:00,
2013-12-01 17:43:00,28.4,20.8,30.02,SSW,203,0.0,0.0,73,0.00,CLR,OVC,0.00,0.0,WeatherDisplay:10.37,2013-12-01 23:43:00,
2013-12-01 17:48:00,28.3,20.7,30.01,SSW,203,0.0,0.0,73,0.00,CLR,OVC,0.00,0.0,WeatherDisplay:10.37,2013-12-01 23:48:00,
2013-12-01 17:53:00,28.0,20.8,30.01,SSW,203,0.0,0.0,74,0.00,CLR,OVC,0.00,0.0,WeatherDisplay:10.37,2013-12-01 23:53:00,
2013-12-01 17:58:00,27.9,20.7,30.01,SSW,203,0.0,0.0,74,0.00,CLR,OVC,0.00,0.0,WeatherDisplay:10.37,2013-12-01 23:58:00,
2013-12-01 18:03:00,27.7,20.5,30.01,SSW,202,0.0,0.0,74,0.00,CLR,OVC,0.00,0.0,WeatherDisplay:10.37,2013-12-02 00:03:00,
2013-12-01 18:08:00,27.5,20.6,30.01,SSW,203,0.0,0.0,75,0.00,CLR,OVC,0.00,0.0,WeatherDisplay:10.37,2013-12-02 00:08:00,
2013-12-01 18:13:00,27.3,20.4,30.01,SSW,203,0.0,0.0,75,0.00,CLR,OVC,0.00,0.0,WeatherDisplay:10.37,2013-12-02 00:13:00,
2013-12-01 18:18:00,27.1,20.2,30.01,SSW,204,0.0,0.0,75,0.00,CLR,OVC,0.00,0.0,WeatherDisplay:10.37,2013-12-02 00:18:00,
2013-12-01 18:23:00,26.9,20.0,30.01,SSW,203,0.0,0.0,75,0.00,CLR,OVC,0.00,0.0,WeatherDisplay:10.37,2013-12-02 00:23:00,
2013-12-01 18:28:00,26.7,19.8,30.01,SSW,203,0.0,0.0,75,0.00,CLR,OVC,0.00,0.0,WeatherDisplay:10.37,2013-12-02 00:28:00,
2013-12-01 18:33:00,26.4,19.9,30.01,SSW,204,0.0,0.0,76,0.00,CLR,OVC,0.00,0.0,WeatherDisplay:10.37,2013-12-02 00:33:00,
2013-12-01 18:38:00,26.2,19.7,30.01,SSW,203,0.0,0.0,76,0.00,CLR,OVC,0.00,0.0,WeatherDisplay:10.37,2013-12-02 00:38:00,
2013-12-01 18:43:00,26.1,19.9,30.01,SSW,203,0.0,0.0,77,0.00,CLR,OVC,0.00,0.0,WeatherDisplay:10.37,2013-12-02 00:43:00,
2013-12-01 18:48:00,25.9,19.7,30.00,SSW,204,0.0,0.0,77,0.00,CLR,OVC,0.00,0.0,WeatherDisplay:10.37,2013-12-02 00:48:00,
2013-12-01 18:53:00,25.7,19.5,30.00,SSW,203,0.0,0.0,77,0.00,CLR,OVC,0.00,0.0,WeatherDisplay:10.37,2013-12-02 00:53:00,
2013-12-01 18:58:00,25.6,19.4,30.00,SSW,203,0.0,0.0,77,0.00,CLR,OVC,0.00,0.0,WeatherDisplay:10.37,2013-12-02 00:58:00,
2013-12-01 19:03:00,25.5,19.6,30.00,SSW,204,0.0,0.0,78,0.00,CLR,OVC,0.00,0.0,WeatherDisplay:10.37,2013-12-02 01:03:00,
2013-12-01 19:08:00,25.3,19.4,29.99,SSW,203,0.0,0.0,78,0.00,CLR,OVC,0.00,0.0,WeatherDisplay:10.37,2013-12-02 01:08:00,
2013-12-01 19:13:00,25.1,19.2,29.99,SSW,203,0.0,0.0,78,0.00,CLR,OVC,0.00,0.0,WeatherDisplay:10.37,2013-12-02 01:13:00,
2013-12-01 19:18:00,24.8,18.9,29.99,SSW,203,0.0,0.0,78,0.00,CLR,OVC,0.00,0.0,WeatherDisplay:10.37,2013-12-02 01:18:00,
2013-12-01 19:23:00,24.6,18.7,29.99,SSW,203,0.0,0.0,78,0.00,CLR,OVC,0.00,0.0,WeatherDisplay:10.37,2013-12-02 01:23:00,
2013-12-01 19:28:00,24.3,18.4,29.99,SSW,204,0.0,0.0,78,0.00,CLR,OVC,0.00,0.0,WeatherDisplay:10.37,2013-12-02 01:28:00,
2013-12-01 19:33:00,23.9,18.0,29.98,SSW,204,0.0,0.0,78,0.00,CLR,OVC,0.00,0.0,WeatherDisplay:10.37,2013-12-02 01:33:00,
2013-12-01 19:38:00,23.6,18.0,29.98,SSW,203,0.0,0.0,79,0.00,CLR,OVC,0.00,0.0,WeatherDisplay:10.37,2013-12-02 01:38:00,
2013-12-01 19:43:00,23.4,17.8,29.98,SSW,203,0.0,0.0,79,0.00,CLR,OVC,0.00,0.0,WeatherDisplay:10.37,2013-12-02 01:43:00,
2013-12-01 19:48:00,23.3,17.7,29.97,SSW,202,0.0,0.0,79,0.00,CLR,OVC,0.00,0.0,WeatherDisplay:10.37,2013-12-02 01:48:00,
2013-12-01 19:53:00,23.1,17.8,29.97,SSW,203,0.0,0.0,80,0.00,CLR,OVC,0.00,0.0,WeatherDisplay:10.37,2013-12-02 01:53:00,
2013-12-01 19:58:00,22.9,17.7,29.97,SSW,203,0.0,0.0,80,0.00,CLR,OVC,0.00,0.0,WeatherDisplay:10.37,2013-12-02 01:58:00,
2013-12-01 20:03:00,22.7,17.5,29.97,SSW,203,0.0,0.0,80,0.00,CLR,OVC,0.00,0.0,WeatherDisplay:10.37,2013-12-02 02:03:00,
2013-12-01 20:08:00,22.6,17.4,29.97,SSW,203,0.0,0.0,80,0.00,CLR,OVC,0.00,0.0,WeatherDisplay:10.37,2013-12-02 02:08:00,
2013-12-01 20:13:00,22.5,17.5,29.97,SSW,204,0.0,0.0,81,0.00,CLR,OVC,0.00,0.0,WeatherDisplay:10.37,2013-12-02 02:13:00,
2013-12-01 20:18:00,22.4,17.5,29.97,SSW,203,0.0,0.0,81,0.00,CLR,OVC,0.00,0.0,WeatherDisplay:10.37,2013-12-02 02:18:00,
2013-12-01 20:23:00,22.3,17.4,29.97,SSW,202,0.0,0.0,81,0.00,CLR,OVC,0.00,0.0,WeatherDisplay:10.37,2013-12-02 02:23:00,
2013-12-01 20:28:00,22.2,17.3,29.97,SSW,203,0.0,0.0,81,0.00,CLR,OVC,0.00,0.0,WeatherDisplay:10.37,2013-12-02 02:28:00,
2013-12-01 20:33:00,22.2,17.3,29.96,SSW,203,0.0,0.0,81,0.00,CLR,OVC,0.00,0.0,WeatherDisplay:10.37,2013-12-02 02:33:00,
2013-12-01 20:38:00,22.1,17.4,29.96,SSW,203,0.0,0.0,82,0.00,CLR,OVC,0.00,0.0,WeatherDisplay:10.37,2013-12-02 02:38:00,
2013-12-01 20:43:00,22.0,17.3,29.97,SSW,204,0.0,0.0,82,0.00,CLR,OVC,0.00,0.0,WeatherDisplay:10.37,2013-12-02 02:43:00,
2013-12-01 20:48:00,21.9,17.2,29.96,SSW,203,0.0,0.0,82,0.00,CLR,OVC,0.00,0.0,WeatherDisplay:10.37,2013-12-02 02:48:00,
2013-12-01 20:53:00,21.8,17.2,29.96,SSW,203,0.0,0.0,82,0.00,CLR,OVC,0.00,0.0,WeatherDisplay:10.37,2013-12-02 02:53:00,
2013-12-01 20:58:00,21.6,17.0,29.96,SSW,203,0.0,0.0,82,0.00,CLR,OVC,0.00,0.0,WeatherDisplay:10.37,2013-12-02 02:58:00,
2013-12-01 21:03:00,21.5,16.9,29.96,SSW,203,0.0,0.0,82,0.00,CLR,OVC,0.00,0.0,WeatherDisplay:10.37,2013-12-02 03:03:00,
2013-12-01 21:08:00,21.4,16.8,29.96,SSW,203,0.0,0.0,82,0.00,CLR,OVC,0.00,0.0,WeatherDisplay:10.37,2013-12-02 03:08:00,
2013-12-01 21:13:00,21.4,16.8,29.96,SSW,203,0.0,0.0,82,0.00,CLR,OVC,0.00,0.0,WeatherDisplay:10.37,2013-12-02 03:13:00,
2013-12-01 21:18:00,21.3,16.7,29.95,SSW,204,0.0,0.0,82,0.00,CLR,OVC,0.00,0.0,WeatherDisplay:10.37,2013-12-02 03:18:00,
2013-12-01 21:23:00,21.1,16.5,29.95,SSW,204,0.0,0.0,82,0.00,CLR,OVC,0.00,0.0,WeatherDisplay:10.37,2013-12-02 03:23:00,
2013-12-01 21:28:00,21.1,16.5,29.95,SSW,204,0.0,0.0,82,0.00,CLR,OVC,0.00,0.0,WeatherDisplay:10.37,2013-12-02 03:28:00,
2013-12-01 21:33:00,21.3,16.9,29.95,SSW,203,0.0,0.0,83,0.00,CLR,OVC,0.00,0.0,WeatherDisplay:10.37,2013-12-02 03:33:00,
2013-12-01 21:38:00,21.5,17.1,29.95,SSW,203,0.0,0.0,83,0.00,CLR,OVC,0.00,0.0,WeatherDisplay:10.37,2013-12-02 03:38:00,
2013-12-01 21:43:00,21.6,17.2,29.95,SSW,203,0.0,0.0,83,0.00,CLR,OVC,0.00,0.0,WeatherDisplay:10.37,2013-12-02 03:43:00,
2013-12-01 21:48:00,21.8,17.4,29.95,SSW,203,0.0,0.0,83,0.00,CLR,OVC,0.00,0.0,WeatherDisplay:10.37,2013-12-02 03:48:00,
2013-12-01 21:53:00,21.9,17.5,29.95,SSW,203,0.0,0.0,83,0.00,CLR,OVC,0.00,0.0,WeatherDisplay:10.37,2013-12-02 03:53:00,
2013-12-01 21:58:00,22.2,18.1,29.95,SSW,204,0.0,0.0,84,0.00,CLR,OVC,0.00,0.0,WeatherDisplay:10.37,2013-12-02 03:58:00,
2013-12-01 22:03:00,22.4,18.3,29.94,SSW,203,0.0,0.0,84,0.00,CLR,OVC,0.00,0.0,WeatherDisplay:10.37,2013-12-02 04:03:00,
2013-12-01 22:08:00,22.5,18.4,29.94,SSW,204,0.0,0.0,84,0.00,CLR,OVC,0.00,0.0,WeatherDisplay:10.37,2013-12-02 04:08:00,
2013-12-01 22:13:00,22.8,18.7,29.94,SSW,204,0.0,0.0,84,0.00,CLR,OVC,0.00,0.0,WeatherDisplay:10.37,2013-12-02 04:13:00,
2013-12-01 22:18:00,22.9,18.8,29.94,SSW,203,0.0,0.0,84,0.00,CLR,OVC,0.00,0.0,WeatherDisplay:10.37,2013-12-02 04:18:00,
2013-12-01 22:23:00,23.0,18.9,29.93,SSW,204,0.0,0.0,84,0.00,CLR,OVC,0.00,0.0,WeatherDisplay:10.37,2013-12-02 04:23:00,
2013-12-01 22:28:00,23.1,19.0,29.94,SSW,203,0.0,0.0,84,0.00,CLR,OVC,0.00,0.0,WeatherDisplay:10.37,2013-12-02 04:28:00,
2013-12-01 22:33:00,23.3,19.2,29.94,SSW,203,0.0,0.0,84,0.00,CLR,OVC,0.00,0.0,WeatherDisplay:10.37,2013-12-02 04:33:00,
2013-12-01 22:38:00,23.4,19.3,29.94,SSW,203,0.0,0.0,84,0.00,CLR,OVC,0.00,0.0,WeatherDisplay:10.37,2013-12-02 04:38:00,
2013-12-01 22:43:00,23.4,19.3,29.93,SSW,203,0.0,0.0,84,0.00,CLR,OVC,0.00,0.0,WeatherDisplay:10.37,2013-12-02 04:43:00,
2013-12-01 22:48:00,23.5,19.4,29.94,SSW,204,0.0,0.0,84,0.00,CLR,OVC,0.00,0.0,WeatherDisplay:10.37,2013-12-02 04:48:00,
2013-12-01 22:53:00,23.5,19.4,29.94,SSW,204,0.0,0.0,84,0.00,CLR,OVC,0.00,0.0,WeatherDisplay:10.37,2013-12-02 04:53:00,
2013-12-01 22:58:00,23.6,19.5,29.93,SSW,203,0.0,0.0,84,0.00,CLR,OVC,0.00,0.0,WeatherDisplay:10.37,2013-12-02 04:58:00,
2013-12-01 23:01:00,23.7,19.6,29.93,SSW,204,0.0,0.0,84,0.00,CLR,OVC,0.00,0.0,WeatherDisplay:10.37,2013-12-02 05:01:00,
2013-12-01 23:02:00,23.7,19.6,29.93,SSW,204,0.0,0.0,84,0.00,CLR,OVC,0.00,0.0,WeatherDisplay:10.37,2013-12-02 05:02:00,
2013-12-01 23:04:00,23.7,19.6,29.93,SSW,203,0.0,0.0,84,0.00,CLR,OVC,0.00,0.0,WeatherDisplay:10.37,2013-12-02 05:04:00,
2013-12-01 23:07:00,23.8,19.7,29.93,SSW,204,0.0,0.0,84,0.00,CLR,OVC,0.00,0.0,WeatherDisplay:10.37,2013-12-02 05:07:00,
2013-12-01 23:08:00,23.8,19.7,29.93,SSW,203,0.0,0.0,84,0.00,CLR,OVC,0.00,0.0,WeatherDisplay:10.37,2013-12-02 05:08:00,
2013-12-01 23:13:00,23.9,19.8,29.93,SSW,203,0.0,0.0,84,0.00,CLR,OVC,0.00,0.0,WeatherDisplay:10.37,2013-12-02 05:13:00,
2013-12-01 23:18:00,24.2,20.1,29.93,SSW,203,0.0,0.0,84,0.00,CLR,OVC,0.00,0.0,WeatherDisplay:10.37,2013-12-02 05:18:00,
2013-12-01 23:23:00,24.3,20.2,29.93,SSW,203,0.0,0.0,84,0.00,CLR,OVC,0.00,0.0,WeatherDisplay:10.37,2013-12-02 05:23:00,
2013-12-01 23:28:00,24.5,20.4,29.92,SSW,204,0.0,0.0,84,0.00,CLR,OVC,0.00,0.0,WeatherDisplay:10.37,2013-12-02 05:28:00,
2013-12-01 23:33:00,24.7,20.6,29.92,SSW,203,0.0,0.0,84,0.00,CLR,OVC,0.00,0.0,WeatherDisplay:10.37,2013-12-02 05:33:00,
2013-12-01 23:38:00,24.8,20.7,29.92,SSW,203,0.0,0.0,84,0.00,CLR,OVC,0.00,0.0,WeatherDisplay:10.37,2013-12-02 05:38:00,
2013-12-01 23:43:00,25.0,20.8,29.92,SSW,203,0.0,0.0,84,0.00,CLR,OVC,0.00,0.0,WeatherDisplay:10.37,2013-12-02 05:43:00,
2013-12-01 23:48:00,25.0,20.8,29.92,SSW,204,0.0,0.0,84,0.00,CLR,OVC,0.00,0.0,WeatherDisplay:10.37,2013-12-02 05:48:00,
2013-12-01 23:53:00,25.1,20.9,29.92,SSW,203,0.0,0.0,84,0.00,CLR,OVC,0.00,0.0,WeatherDisplay:10.37,2013-12-02 05:53:00,
2013-12-01 23:58:00,25.2,21.0,29.91,SSW,203,0.0,0.0,84,0.00,CLR,OVC,0.00,0.0,WeatherDisplay:10.37,2013-12-02 05:58:00,